createdAt,value
2023-04-12T00:01:35.423Z,15.20
2023-04-12T00:04:05.946Z,15.10
2023-04-12T00:06:33.962Z,15.10
2023-04-12T00:09:02.762Z,15.10
2023-04-12T00:11:32.053Z,15.10
2023-04-12T00:13:59.908Z,15.10
2023-04-12T00:16:27.796Z,15.00
2023-04-12T00:18:55.762Z,14.90
2023-04-12T00:21:24.084Z,14.90
2023-04-12T00:23:51.890Z,14.90
2023-04-12T00:26:21.208Z,14.70
2023-04-12T00:28:49.162Z,14.80
2023-04-12T00:31:17.016Z,14.70
2023-04-12T00:33:44.894Z,14.70
2023-04-12T00:36:12.611Z,14.70
2023-04-12T00:38:42.910Z,14.70
2023-04-12T00:41:10.807Z,14.70
2023-04-12T00:43:41.981Z,14.70
2023-04-12T00:46:12.493Z,14.70
2023-04-12T00:48:40.395Z,14.60
2023-04-12T00:51:08.352Z,14.60
2023-04-12T00:53:36.557Z,14.50
2023-04-12T00:56:04.849Z,14.50
2023-04-12T00:58:32.715Z,14.40
2023-04-12T01:01:00.613Z,14.50
2023-04-12T01:03:31.081Z,14.60
2023-04-12T01:06:04.840Z,14.60
2023-04-12T01:09:03.822Z,14.70
2023-04-12T01:11:59.523Z,14.70
2023-04-12T01:14:43.814Z,14.70
2023-04-12T01:17:20.982Z,14.70
2023-04-12T01:19:57.954Z,14.70
2023-04-12T01:23:22.557Z,14.70
2023-04-12T01:26:33.257Z,14.70
2023-04-12T01:29:09.132Z,14.70
2023-04-12T01:31:39.862Z,14.70
2023-04-12T01:34:11.628Z,14.70
2023-04-12T01:36:41.350Z,14.60
2023-04-12T01:39:09.738Z,14.60
2023-04-12T01:41:49.299Z,14.60
2023-04-12T01:44:17.715Z,14.60
2023-04-12T01:46:47.704Z,14.60
2023-04-12T01:49:17.881Z,14.60
2023-04-12T01:52:23.508Z,14.50
2023-04-12T01:54:56.834Z,14.60
2023-04-12T01:57:27.228Z,14.60
2023-04-12T01:59:57.086Z,14.60
2023-04-12T02:02:26.163Z,14.50
2023-04-12T02:04:55.378Z,14.60
2023-04-12T02:07:23.605Z,14.50
2023-04-12T02:09:51.453Z,14.50
2023-04-12T02:12:22.924Z,14.40
2023-04-12T02:14:52.449Z,14.40
2023-04-12T02:17:21.409Z,14.40
2023-04-12T02:19:49.433Z,14.40
2023-04-12T02:22:18.647Z,14.30
2023-04-12T02:24:46.565Z,14.30
2023-04-12T02:27:14.330Z,14.30
2023-04-12T02:29:42.465Z,14.40
2023-04-12T02:32:11.224Z,14.40
2023-04-12T02:34:40.046Z,14.30
2023-04-12T02:37:16.716Z,14.20
2023-04-12T02:39:44.936Z,14.20
2023-04-12T02:42:13.034Z,14.30
2023-04-12T02:44:43.630Z,14.30
2023-04-12T02:47:14.081Z,14.30
2023-04-12T02:49:45.724Z,14.30
2023-04-12T02:52:16.459Z,14.40
2023-04-12T02:55:10.972Z,14.30
2023-04-12T02:57:38.833Z,14.10
2023-04-12T03:00:16.203Z,14.00
2023-04-12T03:02:49.920Z,14.20
2023-04-12T03:05:29.401Z,14.40
2023-04-12T03:07:57.631Z,14.40
2023-04-12T03:10:37.345Z,14.30
2023-04-12T03:13:05.301Z,14.30
2023-04-12T03:15:48.167Z,14.20
2023-04-12T03:18:17.482Z,14.10
2023-04-12T03:20:49.381Z,14.00
2023-04-12T03:23:18.764Z,13.80
2023-04-12T03:25:51.037Z,13.80
2023-04-12T03:28:36.768Z,13.80
2023-04-12T03:31:07.519Z,13.80
2023-04-12T03:33:43.444Z,13.70
2023-04-12T03:36:24.054Z,13.50
2023-04-12T03:39:06.075Z,13.40
2023-04-12T03:41:36.554Z,13.50
2023-04-12T03:44:05.658Z,13.40
2023-04-12T03:46:35.860Z,13.40
2023-04-12T03:49:08.204Z,13.50
2023-04-12T03:51:36.224Z,13.60
2023-04-12T03:54:04.826Z,13.70
2023-04-12T03:56:48.167Z,13.70
2023-04-12T03:59:23.503Z,13.70
2023-04-12T04:01:51.653Z,13.70
2023-04-12T04:04:19.779Z,13.80
2023-04-12T04:06:49.657Z,13.70
2023-04-12T04:09:18.023Z,13.70
2023-04-12T04:11:47.192Z,13.80
2023-04-12T04:14:15.060Z,13.70
2023-04-12T04:16:43.082Z,13.70
2023-04-12T04:19:11.261Z,13.60
2023-04-12T04:21:40.967Z,13.60
2023-04-12T04:24:11.515Z,13.60
2023-04-12T04:26:43.524Z,13.50
2023-04-12T04:29:21.723Z,13.50
2023-04-12T04:31:50.330Z,13.50
2023-04-12T04:34:19.314Z,13.60
2023-04-12T04:36:49.040Z,13.60
2023-04-12T04:39:23.743Z,13.60
2023-04-12T04:41:55.187Z,13.70
2023-04-12T04:44:31.925Z,13.70
2023-04-12T04:47:00.903Z,13.60
2023-04-12T04:49:28.736Z,13.60
2023-04-12T04:52:04.514Z,13.60
2023-04-12T04:54:33.331Z,13.70
2023-04-12T04:57:03.208Z,13.70
2023-04-12T04:59:31.418Z,13.70
2023-04-12T05:02:11.930Z,13.80
2023-04-12T05:04:39.946Z,13.80
2023-04-12T05:07:09.393Z,13.90
2023-04-12T05:09:37.141Z,13.90
2023-04-12T05:12:06.027Z,13.90
2023-04-12T05:14:46.727Z,13.90
2023-04-12T05:17:18.848Z,13.90
2023-04-12T05:19:48.421Z,14.00
2023-04-12T05:22:22.099Z,13.90
2023-04-12T05:24:51.665Z,13.80
2023-04-12T05:27:20.936Z,13.80
2023-04-12T05:29:49.954Z,13.70
2023-04-12T05:32:20.192Z,13.80
2023-04-12T05:34:49.887Z,13.90
2023-04-12T05:37:18.974Z,13.80
2023-04-12T05:39:46.676Z,13.80
2023-04-12T05:42:17.992Z,13.90
2023-04-12T05:44:48.017Z,14.00
2023-04-12T05:47:17.639Z,14.10
2023-04-12T05:49:45.918Z,14.20
2023-04-12T05:52:14.084Z,14.10
2023-04-12T05:54:43.152Z,14.20
2023-04-12T05:57:17.249Z,14.10
2023-04-12T05:59:46.914Z,14.20
2023-04-12T06:02:14.976Z,14.10
2023-04-12T06:04:50.777Z,14.20
2023-04-12T06:07:21.350Z,14.10
2023-04-12T06:09:50.124Z,14.20
2023-04-12T06:12:18.938Z,14.30
2023-04-12T06:14:47.970Z,14.50
2023-04-12T06:17:15.951Z,14.60
2023-04-12T06:19:44.665Z,14.60
2023-04-12T06:22:12.356Z,14.60
2023-04-12T06:24:42.068Z,14.60
2023-04-12T06:27:11.882Z,14.50
2023-04-12T06:29:39.636Z,14.50
2023-04-12T06:32:07.678Z,14.50
2023-04-12T06:34:36.361Z,14.60
2023-04-12T06:37:08.450Z,14.60
2023-04-12T06:39:36.290Z,14.80
2023-04-12T06:42:04.242Z,14.90
2023-04-12T06:44:33.929Z,14.90
2023-04-12T06:47:01.847Z,14.80
2023-04-12T06:49:29.846Z,14.90
2023-04-12T06:51:57.802Z,14.90
2023-04-12T06:54:25.638Z,14.80
2023-04-12T06:56:53.464Z,14.70
2023-04-12T06:59:23.873Z,14.70
2023-04-12T07:01:52.898Z,14.70
2023-04-12T07:04:20.830Z,14.80
2023-04-12T07:06:48.892Z,14.80
2023-04-12T07:09:16.697Z,14.90
2023-04-12T07:11:44.370Z,14.90
2023-04-12T07:14:12.114Z,14.90
2023-04-12T07:16:39.889Z,14.80
2023-04-12T07:19:08.654Z,14.80
2023-04-12T07:21:36.675Z,14.80
2023-04-12T07:24:04.645Z,14.80
2023-04-12T07:26:32.582Z,14.80
2023-04-12T07:29:00.633Z,14.80
2023-04-12T07:31:30.723Z,14.80
2023-04-12T07:33:58.702Z,14.90
2023-04-12T07:36:27.662Z,14.90
2023-04-12T07:39:15.285Z,15.00
2023-04-12T07:41:46.580Z,15.10
2023-04-12T07:44:14.603Z,15.00
2023-04-12T07:46:42.338Z,15.10
2023-04-12T07:49:10.792Z,15.20
2023-04-12T07:51:38.683Z,15.30
2023-04-12T07:54:06.652Z,15.30
2023-04-12T07:56:35.600Z,15.40
2023-04-12T07:59:03.446Z,15.30
2023-04-12T08:01:31.286Z,15.40
2023-04-12T08:03:59.256Z,15.40
2023-04-12T08:06:30.094Z,15.30
2023-04-12T08:08:58.448Z,15.40
2023-04-12T08:11:26.405Z,15.40
2023-04-12T08:13:54.245Z,15.60
2023-04-12T08:16:22.126Z,15.70
2023-04-12T08:18:49.925Z,15.70
2023-04-12T08:21:17.883Z,15.80
2023-04-12T08:23:45.805Z,15.80
2023-04-12T08:26:13.595Z,15.80
2023-04-12T08:28:41.371Z,15.70
2023-04-12T08:31:09.430Z,15.80
2023-04-12T08:33:37.244Z,15.80
2023-04-12T08:36:06.518Z,15.80
2023-04-12T08:38:44.870Z,15.90
2023-04-12T08:41:14.723Z,15.90
2023-04-12T08:43:46.333Z,15.90
2023-04-12T08:46:18.295Z,15.80
2023-04-12T08:48:48.501Z,15.80
2023-04-12T08:51:19.510Z,15.80
2023-04-12T08:53:47.574Z,15.90
2023-04-12T08:56:16.854Z,16.00
2023-04-12T08:58:51.025Z,16.10
2023-04-12T09:01:21.260Z,16.00
2023-04-12T09:03:49.348Z,16.10
2023-04-12T09:06:17.189Z,16.20
2023-04-12T09:08:52.707Z,16.10
2023-04-12T09:11:28.817Z,16.10
2023-04-12T09:13:58.446Z,16.00
2023-04-12T09:16:41.995Z,16.20
2023-04-12T09:19:10.087Z,16.20
2023-04-12T09:21:51.892Z,16.10
2023-04-12T09:24:19.795Z,16.20
2023-04-12T09:26:47.690Z,16.30
2023-04-12T09:29:26.828Z,16.30
2023-04-12T09:32:05.883Z,16.50
2023-04-12T09:34:36.128Z,16.60
2023-04-12T09:37:22.055Z,16.90
2023-04-12T09:40:04.561Z,17.00
2023-04-12T09:42:34.945Z,17.20
2023-04-12T09:45:24.500Z,17.20
2023-04-12T09:47:53.630Z,17.30
2023-04-12T09:50:23.392Z,17.20
2023-04-12T09:52:51.625Z,17.30
2023-04-12T09:55:22.576Z,17.30
2023-04-12T09:57:52.655Z,17.30
2023-04-12T10:00:23.439Z,17.30
2023-04-12T10:02:53.413Z,17.20
2023-04-12T10:05:23.774Z,17.20
2023-04-12T10:07:53.278Z,17.20
2023-04-12T10:10:21.807Z,17.20
2023-04-12T10:12:50.712Z,17.20
2023-04-12T10:15:21.204Z,17.20
2023-04-12T10:17:57.897Z,17.30
2023-04-12T10:20:28.931Z,17.30
2023-04-12T10:22:59.809Z,17.40
2023-04-12T10:25:31.916Z,17.60
2023-04-12T10:28:21.827Z,17.60
2023-04-12T10:30:52.221Z,17.50
2023-04-12T10:33:25.926Z,17.50
2023-04-12T10:36:04.034Z,17.50
2023-04-12T10:38:48.738Z,17.50
2023-04-12T10:41:21.614Z,17.50
2023-04-12T10:43:51.898Z,17.50
2023-04-12T10:46:46.337Z,17.60
2023-04-12T10:49:15.481Z,17.50
2023-04-12T10:52:05.747Z,17.60
2023-04-12T10:54:37.582Z,17.50
2023-04-12T10:57:07.733Z,17.50
2023-04-12T10:59:53.150Z,17.30
2023-04-12T11:02:22.013Z,17.40
2023-04-12T11:05:09.213Z,17.30
2023-04-12T11:07:53.725Z,17.40
2023-04-12T11:10:47.053Z,17.40
2023-04-12T11:13:38.905Z,17.40
2023-04-12T11:16:07.928Z,17.50
2023-04-12T11:18:36.304Z,17.70
2023-04-12T11:21:05.049Z,17.60
2023-04-12T11:23:33.592Z,17.70
2023-04-12T11:26:04.088Z,17.70
2023-04-12T11:28:34.736Z,17.60
2023-04-12T11:31:04.001Z,17.60
2023-04-12T11:33:39.445Z,17.70
2023-04-12T11:36:09.587Z,17.80
2023-04-12T11:38:38.274Z,17.90
2023-04-12T11:41:08.157Z,18.00
2023-04-12T11:43:38.881Z,17.90
2023-04-12T11:46:07.098Z,18.00
2023-04-12T11:48:35.322Z,18.20
2023-04-12T11:51:22.531Z,18.40
2023-04-12T11:53:53.915Z,18.30
2023-04-12T11:56:22.343Z,18.40
2023-04-12T11:58:50.515Z,18.40
2023-04-12T12:01:20.866Z,18.50
2023-04-12T12:03:49.444Z,18.50
2023-04-12T12:06:19.147Z,18.60
2023-04-12T12:08:48.682Z,18.60
2023-04-12T12:11:17.521Z,18.70
2023-04-12T12:13:49.321Z,18.90
2023-04-12T12:16:18.762Z,19.00
2023-04-12T12:18:50.973Z,19.00
2023-04-12T12:21:21.144Z,19.00
2023-04-12T12:23:50.181Z,19.10
2023-04-12T12:26:27.273Z,19.10
2023-04-12T12:28:57.066Z,19.00
2023-04-12T12:31:28.435Z,19.00
2023-04-12T12:33:59.383Z,19.00
2023-04-12T12:36:36.398Z,19.00
2023-04-12T12:39:12.067Z,18.90
2023-04-12T12:41:40.940Z,19.10
2023-04-12T12:44:09.076Z,19.20
2023-04-12T12:46:51.999Z,19.00
2023-04-12T12:49:21.865Z,18.90
2023-04-12T12:51:51.257Z,19.00
2023-04-12T12:54:32.205Z,19.00
2023-04-12T12:57:06.865Z,18.80
2023-04-12T12:59:34.885Z,18.70
2023-04-12T13:02:02.786Z,18.50
2023-04-12T13:04:30.845Z,18.50
2023-04-12T13:06:58.814Z,18.50
2023-04-12T13:09:26.501Z,18.40
2023-04-12T13:11:54.532Z,18.30
2023-04-12T13:14:22.288Z,18.30
2023-04-12T13:16:51.477Z,18.40
2023-04-12T13:19:19.270Z,18.40
2023-04-12T13:21:48.144Z,18.50
2023-04-12T13:24:16.924Z,18.50
2023-04-12T13:26:45.232Z,18.50
2023-04-12T13:29:13.477Z,18.30
2023-04-12T13:31:41.788Z,18.30
2023-04-12T13:34:10.004Z,18.40
2023-04-12T13:36:37.871Z,18.30
2023-04-12T13:39:05.911Z,18.30
2023-04-12T13:41:34.350Z,18.30
2023-04-12T13:44:02.795Z,18.10
2023-04-12T13:46:32.001Z,18.10
2023-04-12T13:49:00.164Z,18.00
2023-04-12T13:51:28.567Z,18.10
2023-04-12T13:53:56.718Z,18.00
2023-04-12T13:56:25.280Z,18.00
2023-04-12T13:58:53.046Z,18.00
2023-04-12T14:01:23.801Z,17.90
2023-04-12T14:03:53.620Z,17.80
2023-04-12T14:06:22.078Z,17.80
2023-04-12T14:08:51.296Z,17.70
2023-04-12T14:11:19.349Z,17.60
2023-04-12T14:13:47.077Z,17.50
2023-04-12T14:16:14.769Z,17.50
2023-04-12T14:18:42.731Z,17.50
2023-04-12T14:21:10.999Z,17.50
2023-04-12T14:23:38.998Z,17.50
2023-04-12T14:26:07.328Z,17.50
2023-04-12T14:28:35.747Z,17.50
2023-04-12T14:31:06.377Z,17.50
2023-04-12T14:33:34.532Z,17.50
2023-04-12T14:36:05.282Z,17.50
2023-04-12T14:38:33.209Z,17.40
2023-04-12T14:41:02.004Z,17.40
2023-04-12T14:43:34.626Z,17.50
2023-04-12T14:46:02.799Z,17.50
2023-04-12T14:48:30.845Z,17.60
2023-04-12T14:50:58.835Z,17.60
2023-04-12T14:53:27.266Z,17.60
2023-04-12T14:55:55.671Z,17.60
2023-04-12T14:58:23.466Z,17.70
2023-04-12T15:00:51.980Z,17.70
2023-04-12T15:03:21.343Z,17.60
2023-04-12T15:05:49.164Z,17.50
2023-04-12T15:08:17.301Z,17.50
2023-04-12T15:10:45.434Z,17.40
2023-04-12T15:13:13.704Z,17.50
2023-04-12T15:15:41.915Z,17.50
2023-04-12T15:18:09.969Z,17.40
2023-04-12T15:20:38.509Z,17.40
2023-04-12T15:23:06.868Z,17.50
2023-04-12T15:25:34.657Z,17.40
2023-04-12T15:28:03.274Z,17.30
2023-04-12T15:30:32.037Z,17.30
2023-04-12T15:32:59.856Z,17.30
2023-04-12T15:35:27.830Z,17.30
2023-04-12T15:37:55.851Z,17.20
2023-04-12T15:40:24.651Z,17.20
2023-04-12T15:42:52.391Z,17.20
2023-04-12T15:45:20.546Z,17.10
2023-04-12T15:47:48.835Z,17.20
2023-04-12T15:50:16.757Z,17.10
2023-04-12T15:52:45.222Z,17.10
2023-04-12T15:55:18.555Z,17.10
2023-04-12T15:57:47.330Z,17.10
2023-04-12T16:00:26.893Z,17.00
2023-04-12T16:02:56.461Z,17.00
2023-04-12T16:05:25.011Z,17.10
2023-04-12T16:07:54.329Z,17.10
2023-04-12T16:10:22.541Z,17.10
2023-04-12T16:12:52.669Z,17.10
2023-04-12T16:15:21.836Z,17.10
2023-04-12T16:17:54.681Z,17.00
2023-04-12T16:20:23.665Z,16.90
2023-04-12T16:22:56.215Z,17.00
2023-04-12T16:25:25.642Z,16.80
2023-04-12T16:27:53.563Z,16.80
2023-04-12T16:30:22.967Z,16.70
2023-04-12T16:32:51.475Z,16.60
2023-04-12T16:35:19.665Z,16.70
2023-04-12T16:37:48.247Z,16.60
2023-04-12T16:40:17.645Z,16.40
2023-04-12T16:42:46.342Z,16.50
2023-04-12T16:45:15.327Z,16.50
2023-04-12T16:47:45.887Z,16.50
2023-04-12T16:50:17.179Z,16.60
2023-04-12T16:52:45.366Z,16.60
2023-04-12T16:55:13.584Z,16.50
2023-04-12T16:57:42.877Z,16.50
2023-04-12T17:00:22.782Z,16.40
2023-04-12T17:02:52.765Z,16.40
2023-04-12T17:05:22.175Z,16.30
2023-04-12T17:08:00.385Z,16.30
2023-04-12T17:10:28.289Z,16.40
2023-04-12T17:12:57.961Z,16.40
2023-04-12T17:15:27.701Z,16.50
2023-04-12T17:18:06.865Z,16.40
2023-04-12T17:20:34.883Z,16.40
2023-04-12T17:23:03.461Z,16.40
2023-04-12T17:25:32.304Z,16.40
2023-04-12T17:28:07.796Z,16.50
2023-04-12T17:30:41.397Z,16.40
2023-04-12T17:33:09.229Z,16.40
2023-04-12T17:35:37.168Z,16.50
2023-04-12T17:38:05.174Z,16.40
2023-04-12T17:40:32.939Z,16.40
2023-04-12T17:43:00.780Z,16.30
2023-04-12T17:45:28.784Z,16.20
2023-04-12T17:47:56.518Z,16.30
2023-04-12T17:50:24.449Z,16.30
2023-04-12T17:52:52.205Z,16.30
2023-04-12T17:55:23.602Z,16.40
2023-04-12T17:57:51.420Z,16.50
2023-04-12T18:00:20.911Z,16.50
2023-04-12T18:02:49.560Z,16.40
2023-04-12T18:05:17.658Z,16.40
2023-04-12T18:07:46.421Z,16.20
2023-04-12T18:10:15.827Z,16.30
2023-04-12T18:12:45.302Z,16.20
2023-04-12T18:15:13.321Z,16.20
2023-04-12T18:17:41.492Z,16.30
2023-04-12T18:20:11.020Z,16.30
2023-04-12T18:22:39.274Z,16.10
2023-04-12T18:25:11.829Z,16.10
2023-04-12T18:27:39.956Z,16.20
2023-04-12T18:30:08.459Z,16.10
2023-04-12T18:32:36.435Z,16.20
2023-04-12T18:35:05.122Z,16.00
2023-04-12T18:37:33.498Z,15.80
2023-04-12T18:40:02.291Z,15.80
2023-04-12T18:42:31.040Z,15.80
2023-04-12T18:44:58.943Z,15.80
2023-04-12T18:47:27.815Z,15.80
2023-04-12T18:49:55.736Z,15.70
2023-04-12T18:52:23.545Z,15.80
2023-04-12T18:54:51.517Z,15.90
2023-04-12T18:57:19.538Z,15.90
2023-04-12T18:59:49.071Z,15.80
2023-04-12T19:02:18.375Z,15.80
2023-04-12T19:04:46.330Z,15.90
2023-04-12T19:07:14.022Z,15.80
2023-04-12T19:09:42.461Z,15.70
2023-04-12T19:12:15.198Z,15.80
2023-04-12T19:14:45.037Z,15.70
2023-04-12T19:17:18.365Z,15.80
2023-04-12T19:19:50.631Z,15.80
2023-04-12T19:22:22.632Z,15.70
2023-04-12T19:25:02.384Z,15.70
2023-04-12T19:27:31.919Z,15.80
2023-04-12T19:30:08.023Z,15.70
2023-04-12T19:32:38.173Z,15.70
2023-04-12T19:35:10.273Z,15.70
2023-04-12T19:37:40.938Z,15.70
2023-04-12T19:40:18.683Z,15.70
2023-04-12T19:42:49.610Z,15.60
2023-04-12T19:45:22.126Z,15.50
2023-04-12T19:47:53.643Z,15.50
2023-04-12T19:50:25.482Z,15.50
2023-04-12T19:52:56.290Z,15.40
2023-04-12T19:55:27.865Z,15.40
2023-04-12T19:58:01.677Z,15.40
2023-04-12T20:00:30.648Z,15.50
2023-04-12T20:02:59.557Z,15.50
2023-04-12T20:05:28.011Z,15.60
2023-04-12T20:08:00.852Z,15.40
2023-04-12T20:10:32.598Z,15.30
2023-04-12T20:13:01.167Z,15.30
2023-04-12T20:15:33.913Z,15.30
2023-04-12T20:18:05.959Z,15.30
2023-04-12T20:20:39.235Z,15.20
2023-04-12T20:23:12.922Z,15.30
2023-04-12T20:25:49.748Z,15.30
2023-04-12T20:28:21.074Z,15.30
2023-04-12T20:30:53.743Z,15.30
2023-04-12T20:33:23.883Z,15.10
2023-04-12T20:35:55.677Z,15.20
2023-04-12T20:38:27.599Z,15.00
2023-04-12T20:41:04.027Z,15.00
2023-04-12T20:43:45.142Z,15.00
2023-04-12T20:46:21.933Z,15.10
2023-04-12T20:48:56.977Z,14.90
2023-04-12T20:51:29.485Z,14.90
2023-04-12T20:54:04.512Z,14.80
2023-04-12T20:56:37.720Z,14.70
2023-04-12T20:59:09.544Z,14.80
2023-04-12T21:01:40.806Z,14.90
2023-04-12T21:04:15.443Z,15.00
2023-04-12T21:06:46.246Z,15.00
2023-04-12T21:09:15.053Z,14.90
2023-04-12T21:11:43.681Z,14.80
2023-04-12T21:14:12.125Z,14.90
2023-04-12T21:16:41.821Z,14.90
2023-04-12T21:19:10.870Z,14.80
2023-04-12T21:21:39.116Z,14.70
2023-04-12T21:24:07.783Z,14.40
2023-04-12T21:26:36.301Z,14.40
2023-04-12T21:29:04.792Z,14.30
2023-04-12T21:31:32.678Z,14.00
2023-04-12T21:34:00.972Z,13.80
2023-04-12T21:36:30.454Z,13.60
2023-04-12T21:39:00.359Z,13.60
2023-04-12T21:41:29.931Z,13.80
2023-04-12T21:43:57.973Z,13.80
2023-04-12T21:46:27.885Z,13.60
2023-04-12T21:48:56.127Z,13.60
2023-04-12T21:51:25.444Z,13.60
2023-04-12T21:53:53.215Z,13.60
2023-04-12T21:56:21.074Z,13.60
2023-04-12T21:58:48.980Z,13.50
2023-04-12T22:01:16.898Z,13.60
2023-04-12T22:03:45.175Z,13.60
2023-04-12T22:06:13.183Z,13.60
2023-04-12T22:08:44.369Z,13.60
2023-04-12T22:11:12.593Z,13.60
2023-04-12T22:13:42.059Z,13.60
2023-04-12T22:16:14.213Z,13.60
2023-04-12T22:18:46.170Z,13.70
2023-04-12T22:21:14.043Z,13.50
2023-04-12T22:23:41.957Z,13.50
2023-04-12T22:26:13.720Z,13.50
2023-04-12T22:28:42.772Z,13.50
2023-04-12T22:31:14.682Z,13.40
2023-04-12T22:33:43.910Z,13.50
2023-04-12T22:36:11.872Z,13.40
2023-04-12T22:38:40.089Z,13.50
2023-04-12T22:41:07.883Z,13.50
2023-04-12T22:43:47.802Z,13.50
2023-04-12T22:46:18.864Z,13.60
2023-04-12T22:48:49.861Z,13.50
2023-04-12T22:51:17.609Z,13.40
2023-04-12T22:53:45.396Z,13.40
2023-04-12T22:56:13.713Z,13.40
2023-04-12T22:58:42.992Z,13.40
2023-04-12T23:01:11.318Z,13.40
2023-04-12T23:03:41.717Z,13.40
2023-04-12T23:06:12.941Z,13.40
2023-04-12T23:08:40.891Z,13.50
2023-04-12T23:11:08.655Z,13.30
2023-04-12T23:13:36.435Z,13.20
2023-04-12T23:16:05.860Z,13.10
2023-04-12T23:18:33.621Z,13.10
2023-04-12T23:21:04.411Z,13.10
2023-04-12T23:23:32.504Z,13.20
2023-04-12T23:26:01.714Z,13.10
2023-04-12T23:28:30.175Z,13.10
2023-04-12T23:30:59.166Z,13.10
2023-04-12T23:33:26.880Z,13.10
2023-04-12T23:35:58.833Z,13.10
2023-04-12T23:38:32.447Z,13.20
2023-04-12T23:41:04.490Z,13.20
2023-04-12T23:43:34.770Z,13.30
2023-04-12T23:46:03.432Z,13.30
2023-04-12T23:48:32.878Z,13.20
2023-04-12T23:51:00.621Z,13.30
2023-04-12T23:53:28.394Z,13.20
2023-04-12T23:55:56.292Z,13.20
2023-04-12T23:58:25.706Z,13.20
